createdAt,value
2022-10-22T00:00:03.276Z,99019.75
2022-10-22T00:04:07.194Z,99023.91
2022-10-22T00:08:09.120Z,99040.00
2022-10-22T00:12:11.644Z,99042.47
2022-10-22T00:16:13.889Z,99022.69
2022-10-22T00:20:16.763Z,99010.03
2022-10-22T00:24:18.876Z,99010.50
2022-10-22T00:28:21.031Z,99012.66
2022-10-22T00:32:23.167Z,99017.97
2022-10-22T00:36:25.084Z,99021.75
2022-10-22T00:40:27.022Z,99015.00
2022-10-22T00:45:03.258Z,99008.25
2022-10-22T00:49:05.993Z,99000.41
2022-10-22T00:53:24.916Z,99025.84
2022-10-22T00:57:27.820Z,99021.78
2022-10-22T01:01:32.241Z,98979.63
2022-10-22T01:05:42.814Z,98995.81
2022-10-22T01:10:20.384Z,98994.94
2022-10-22T01:14:45.718Z,98984.13
2022-10-22T01:19:14.447Z,98989.78
2022-10-22T01:23:35.270Z,98988.47
2022-10-22T01:28:01.679Z,98985.88
2022-10-22T01:32:16.427Z,98982.97
2022-10-22T01:36:19.940Z,98990.81
2022-10-22T01:40:23.939Z,98967.72
2022-10-22T01:48:46.008Z,98978.59
2022-10-22T01:53:23.840Z,98979.19
2022-10-22T01:57:58.076Z,98990.81
2022-10-22T02:02:06.016Z,98989.50
2022-10-22T02:06:17.698Z,98977.09
2022-10-22T02:10:20.122Z,98970.84
2022-10-22T02:14:23.299Z,98967.84
2022-10-22T02:18:30.251Z,98969.88
2022-10-22T02:22:32.866Z,98949.19
2022-10-22T02:26:43.554Z,98946.31
2022-10-22T02:30:52.064Z,98957.34
2022-10-22T02:34:56.786Z,98937.59
2022-10-22T02:39:00.126Z,98942.66
2022-10-22T02:43:04.724Z,98940.22
2022-10-22T02:47:06.765Z,98939.44
2022-10-22T02:51:09.194Z,98923.56
2022-10-22T02:55:11.175Z,98926.47
2022-10-22T02:59:13.153Z,98924.47
2022-10-22T03:03:15.132Z,98936.47
2022-10-22T03:07:17.083Z,98938.28
2022-10-22T03:11:19.244Z,98941.75
2022-10-22T03:15:21.536Z,98951.75
2022-10-22T03:19:23.484Z,98952.25
2022-10-22T03:23:25.949Z,98941.47
2022-10-22T03:27:29.463Z,98945.84
2022-10-22T03:31:31.771Z,98944.44
2022-10-22T03:35:42.459Z,98943.50
2022-10-22T03:39:45.164Z,98946.25
2022-10-22T03:43:51.489Z,98951.44
2022-10-22T03:47:53.425Z,98960.56
2022-10-22T03:51:55.302Z,98949.22
2022-10-22T03:55:57.227Z,98954.28
2022-10-22T03:59:59.143Z,98958.03
2022-10-22T04:04:01.240Z,98956.63
2022-10-22T04:08:03.292Z,98965.50
2022-10-22T04:12:07.941Z,98965.50
2022-10-22T04:16:12.401Z,98959.31
2022-10-22T04:20:17.356Z,98963.09
2022-10-22T04:24:21.462Z,98948.13
2022-10-22T04:28:23.545Z,98942.25
2022-10-22T04:32:26.917Z,98940.44
2022-10-22T04:36:29.459Z,98934.09
2022-10-22T04:40:31.451Z,98935.88
2022-10-22T04:44:33.728Z,98937.09
2022-10-22T04:48:37.377Z,98932.69
2022-10-22T04:52:39.708Z,98927.34
2022-10-22T04:56:41.707Z,98916.69
2022-10-22T05:00:43.725Z,98894.75
2022-10-22T05:04:45.688Z,98887.66
2022-10-22T05:08:48.710Z,98894.66
2022-10-22T05:12:51.100Z,98896.38
2022-10-22T05:16:53.445Z,98907.00
2022-10-22T05:20:55.397Z,98912.78
2022-10-22T05:24:57.578Z,98912.69
2022-10-22T05:28:59.585Z,98914.28
2022-10-22T05:33:01.576Z,98921.75
2022-10-22T05:37:03.810Z,98919.34
2022-10-22T05:41:09.080Z,98925.47
2022-10-22T05:45:12.977Z,98915.97
2022-10-22T05:49:16.239Z,98916.91
2022-10-22T05:53:18.699Z,98908.16
2022-10-22T05:57:20.699Z,98927.34
2022-10-22T06:01:25.908Z,98926.34
2022-10-22T06:05:27.930Z,98934.34
2022-10-22T06:09:35.368Z,98944.22
2022-10-22T06:13:37.424Z,98957.72
2022-10-22T06:17:39.990Z,98964.19
2022-10-22T06:21:42.799Z,98956.72
2022-10-22T06:25:45.197Z,98972.41
2022-10-22T06:29:48.527Z,98966.69
2022-10-22T06:33:50.488Z,98966.59
2022-10-22T06:37:52.478Z,98962.19
2022-10-22T06:41:54.408Z,98974.00
2022-10-22T06:46:00.833Z,98975.81
2022-10-22T06:50:02.842Z,98991.31
2022-10-22T06:54:04.862Z,98992.13
2022-10-22T06:58:07.027Z,99009.09
2022-10-22T07:02:10.479Z,99016.56
2022-10-22T07:06:14.221Z,99002.91
2022-10-22T07:10:16.244Z,99011.50
2022-10-22T07:14:18.442Z,99013.00
2022-10-22T07:18:20.668Z,99012.69
2022-10-22T07:22:22.607Z,99022.50
2022-10-22T07:26:25.721Z,99024.88
2022-10-22T07:30:27.744Z,99028.06
2022-10-22T07:34:29.773Z,99030.56
2022-10-22T07:38:46.018Z,99033.34
2022-10-22T07:42:47.934Z,99028.13
2022-10-22T07:46:50.293Z,99036.75
2022-10-22T07:50:52.280Z,99032.09
2022-10-22T07:54:54.212Z,99045.09
2022-10-22T07:58:56.292Z,99050.53
2022-10-22T08:02:58.364Z,99052.63
2022-10-22T08:07:01.442Z,99047.63
2022-10-22T08:11:03.619Z,99043.88
2022-10-22T08:15:08.132Z,99045.34
2022-10-22T08:19:10.063Z,99052.66
2022-10-22T08:23:11.999Z,99049.84
2022-10-22T08:27:14.097Z,99047.78
2022-10-22T08:31:16.079Z,99055.56
2022-10-22T08:35:18.094Z,99054.56
2022-10-22T08:39:20.057Z,99056.09
2022-10-22T08:43:32.573Z,99059.59
2022-10-22T08:48:15.482Z,99048.09
2022-10-22T08:52:19.936Z,99048.91
2022-10-22T08:56:23.912Z,99046.31
2022-10-22T09:00:36.678Z,99047.09
2022-10-22T09:05:02.350Z,99049.22
2022-10-22T09:09:11.916Z,99040.13
2022-10-22T09:13:18.340Z,99038.69
2022-10-22T09:17:38.775Z,99038.91
2022-10-22T09:21:56.786Z,99037.72
2022-10-22T09:25:59.816Z,99037.59
2022-10-22T09:30:02.264Z,99045.16
2022-10-22T09:34:07.553Z,99040.56
2022-10-22T09:38:09.589Z,99047.00
2022-10-22T09:42:16.289Z,99046.16
2022-10-22T09:46:21.391Z,99036.03
2022-10-22T09:50:41.100Z,99035.91
2022-10-22T09:54:43.158Z,99041.66
2022-10-22T09:58:49.402Z,99044.72
2022-10-22T10:02:58.594Z,99027.28
2022-10-22T10:07:00.627Z,99032.97
2022-10-22T10:11:36.519Z,99034.53
2022-10-22T10:15:51.867Z,99025.63
2022-10-22T10:20:31.746Z,99025.69
2022-10-22T10:24:56.073Z,99029.72
2022-10-22T10:29:38.997Z,99023.25
2022-10-22T10:34:03.035Z,99012.28
2022-10-22T10:38:34.363Z,98992.47
2022-10-22T10:42:39.878Z,98995.53
2022-10-22T10:46:55.475Z,98984.91
2022-10-22T10:51:47.546Z,98985.72
2022-10-22T10:56:01.921Z,98990.69
2022-10-22T11:00:11.915Z,98983.34
2022-10-22T11:04:34.562Z,98986.28
2022-10-22T11:08:43.574Z,98974.81
2022-10-22T11:12:51.484Z,98965.31
2022-10-22T11:17:06.047Z,98965.19
2022-10-22T11:21:39.880Z,98979.22
2022-10-22T11:25:46.083Z,98966.06
2022-10-22T11:29:54.167Z,98959.88
2022-10-22T11:34:39.650Z,98958.97
2022-10-22T11:38:41.698Z,98958.16
2022-10-22T11:42:54.360Z,98945.25
2022-10-22T11:47:15.682Z,98945.81
2022-10-22T11:51:37.197Z,98935.94
2022-10-22T11:55:55.789Z,98926.25
2022-10-22T12:00:01.760Z,98926.41
2022-10-22T12:04:39.514Z,98924.66
2022-10-22T12:08:54.183Z,98921.81
2022-10-22T12:12:58.738Z,98928.66
2022-10-22T12:17:15.777Z,98927.31
2022-10-22T12:21:17.778Z,98920.00
2022-10-22T12:25:24.371Z,98919.75
2022-10-22T12:29:28.124Z,98921.53
2022-10-22T12:33:32.722Z,98903.84
2022-10-22T12:37:38.681Z,98917.47
2022-10-22T12:41:41.036Z,98915.72
2022-10-22T12:45:46.001Z,98920.91
2022-10-22T12:49:50.187Z,98918.50
2022-10-22T12:53:55.279Z,98915.22
2022-10-22T12:57:57.308Z,98914.44
2022-10-22T13:01:59.828Z,98917.78
2022-10-22T13:06:20.157Z,98913.91
2022-10-22T13:10:33.784Z,98910.47
2022-10-22T13:14:38.249Z,98915.66
2022-10-22T13:18:40.910Z,98904.66
2022-10-22T13:22:55.107Z,98910.25
2022-10-22T13:26:57.546Z,98906.16
2022-10-22T13:31:03.037Z,98913.88
2022-10-22T13:35:05.478Z,98914.59
2022-10-22T13:39:16.387Z,98906.59
2022-10-22T13:43:19.447Z,98909.56
2022-10-22T13:47:29.553Z,98901.00
2022-10-22T13:51:35.642Z,98910.06
2022-10-22T13:55:37.573Z,98913.69
2022-10-22T13:59:39.687Z,98921.34
2022-10-22T14:03:42.089Z,98917.38
2022-10-22T14:07:44.600Z,98923.88
2022-10-22T14:11:46.727Z,98925.03
2022-10-22T14:15:51.585Z,98932.16
2022-10-22T14:19:53.591Z,98927.34
2022-10-22T14:23:55.538Z,98933.72
2022-10-22T14:27:57.625Z,98948.91
2022-10-22T14:31:59.588Z,98952.72
2022-10-22T14:36:01.902Z,98953.59
2022-10-22T14:40:04.447Z,98953.63
2022-10-22T14:44:06.671Z,98956.38
2022-10-22T14:48:08.648Z,98959.44
2022-10-22T14:52:14.145Z,98975.16
2022-10-22T14:56:21.289Z,98988.50
2022-10-22T15:00:23.506Z,98978.19
2022-10-22T15:04:27.223Z,98981.03
2022-10-22T15:08:29.186Z,98977.19
2022-10-22T15:12:31.369Z,98977.63
2022-10-22T15:16:33.447Z,98988.16
2022-10-22T15:20:35.440Z,98990.69
2022-10-22T15:24:38.971Z,98990.34
2022-10-22T15:28:41.610Z,98991.50
2022-10-22T15:32:43.778Z,98997.69
2022-10-22T15:36:45.898Z,98999.88
2022-10-22T15:40:48.313Z,99007.91
2022-10-22T15:44:58.518Z,99014.91
2022-10-22T15:49:00.587Z,99009.94
2022-10-22T15:53:02.726Z,99006.69
2022-10-22T15:57:08.839Z,99009.81
2022-10-22T16:01:13.183Z,99011.47
2022-10-22T16:05:15.238Z,99013.75
2022-10-22T16:09:20.238Z,99015.88
2022-10-22T16:13:24.931Z,99025.31
2022-10-22T16:17:26.893Z,99030.09
2022-10-22T16:21:29.144Z,99028.19
2022-10-22T16:25:31.526Z,99040.31
2022-10-22T16:29:33.693Z,99032.78
2022-10-22T16:33:41.614Z,99034.22
2022-10-22T16:37:46.817Z,99035.47
2022-10-22T16:41:48.863Z,99028.91
2022-10-22T16:45:50.861Z,99036.03
2022-10-22T16:49:53.049Z,99036.50
2022-10-22T16:53:56.678Z,99047.75
2022-10-22T16:57:58.929Z,99042.94
2022-10-22T17:02:00.946Z,99057.09
2022-10-22T17:06:04.582Z,99050.22
2022-10-22T17:10:09.118Z,99054.16
2022-10-22T17:14:11.291Z,99056.69
2022-10-22T17:18:13.223Z,99064.63
2022-10-22T17:22:17.718Z,99083.25
2022-10-22T17:26:22.691Z,99079.88
2022-10-22T17:30:27.238Z,99094.47
2022-10-22T17:34:33.124Z,99107.44
2022-10-22T17:38:35.918Z,99113.63
2022-10-22T17:42:38.136Z,99123.88
2022-10-22T17:46:40.126Z,99130.16
2022-10-22T17:50:45.874Z,99122.97
2022-10-22T17:54:53.240Z,99125.69
2022-10-22T17:58:55.830Z,99143.72
2022-10-22T18:02:59.885Z,99150.31
2022-10-22T18:07:02.095Z,99148.53
2022-10-22T18:11:12.140Z,99144.56
2022-10-22T18:15:14.344Z,99143.97
2022-10-22T18:19:19.487Z,99141.19
2022-10-22T18:23:21.454Z,99140.13
2022-10-22T18:27:23.454Z,99129.72
2022-10-22T18:31:27.046Z,99136.22
2022-10-22T18:35:32.368Z,99150.19
2022-10-22T18:39:34.846Z,99162.59
2022-10-22T18:43:37.432Z,99174.19
2022-10-22T18:47:42.835Z,99184.69
2022-10-22T18:51:46.612Z,99182.56
2022-10-22T18:55:48.610Z,99176.94
2022-10-22T18:59:50.695Z,99184.34
2022-10-22T19:03:53.048Z,99174.16
2022-10-22T19:07:55.017Z,99179.38
2022-10-22T19:11:57.036Z,99191.22
2022-10-22T19:16:03.720Z,99199.13
2022-10-22T19:20:06.307Z,99196.41
2022-10-22T19:24:08.601Z,99191.06
2022-10-22T19:28:10.630Z,99204.03
2022-10-22T19:32:13.111Z,99207.19
2022-10-22T19:36:19.887Z,99210.38
2022-10-22T19:40:25.760Z,99223.25
2022-10-22T19:44:28.433Z,99237.66
2022-10-22T19:48:30.438Z,99222.75
2022-10-22T19:52:33.395Z,99226.75
2022-10-22T19:56:37.611Z,99237.53
2022-10-22T20:00:39.555Z,99232.78
2022-10-22T20:04:41.808Z,99240.16
2022-10-22T20:08:44.100Z,99238.53
2022-10-22T20:12:46.131Z,99242.69
2022-10-22T20:16:48.210Z,99250.66
2022-10-22T20:20:50.424Z,99244.38
2022-10-22T20:24:52.400Z,99251.00
2022-10-22T20:28:56.613Z,99254.69
2022-10-22T20:32:58.649Z,99254.94
2022-10-22T20:37:00.569Z,99265.13
2022-10-22T20:41:14.059Z,99270.22
2022-10-22T20:45:16.391Z,99268.78
2022-10-22T20:49:20.674Z,99266.59
2022-10-22T20:53:22.989Z,99269.28
2022-10-22T20:57:25.214Z,99267.84
2022-10-22T21:01:28.530Z,99266.53
2022-10-22T21:05:30.652Z,99274.34
2022-10-22T21:09:34.954Z,99266.53
2022-10-22T21:13:37.016Z,99282.97
2022-10-22T21:17:40.335Z,99283.78
2022-10-22T21:21:42.433Z,99273.72
2022-10-22T21:25:56.408Z,99282.75
2022-10-22T21:29:58.576Z,99273.63
2022-10-22T21:34:01.049Z,99271.84
2022-10-22T21:38:03.592Z,99278.34
2022-10-22T21:42:05.755Z,99280.59
2022-10-22T21:46:10.814Z,99289.41
2022-10-22T21:50:12.818Z,99299.59
2022-10-22T21:54:14.836Z,99310.81
2022-10-22T21:58:16.869Z,99304.81
2022-10-22T22:02:18.818Z,99298.34
2022-10-22T22:06:24.132Z,99295.78
2022-10-22T22:10:26.691Z,99304.31
2022-10-22T22:14:28.674Z,99302.94
2022-10-22T22:18:31.487Z,99300.56
2022-10-22T22:22:33.518Z,99289.88
2022-10-22T22:26:36.200Z,99290.97
2022-10-22T22:30:38.171Z,99303.44
2022-10-22T22:34:41.460Z,99297.06
2022-10-22T22:38:43.379Z,99295.34
2022-10-22T22:42:45.315Z,99291.84
2022-10-22T22:46:47.286Z,99298.03
2022-10-22T22:50:49.621Z,99305.47
2022-10-22T22:54:51.601Z,99310.56
2022-10-22T22:58:54.760Z,99303.06
2022-10-22T23:02:56.830Z,99289.31
2022-10-22T23:06:59.031Z,99280.75
2022-10-22T23:11:10.117Z,99271.78
2022-10-22T23:15:12.059Z,99268.75
2022-10-22T23:19:16.893Z,99273.63
2022-10-22T23:23:19.754Z,99264.38
2022-10-22T23:27:22.070Z,99270.78
2022-10-22T23:31:24.130Z,99264.06
2022-10-22T23:35:26.317Z,99259.88
2022-10-22T23:39:29.351Z,99256.00
2022-10-22T23:43:32.323Z,99258.53
2022-10-22T23:47:34.832Z,99251.75
2022-10-22T23:51:38.093Z,99251.16
2022-10-22T23:55:42.868Z,99258.03
2022-10-22T23:59:45.008Z,99254.91
